createdAt,value
2019-03-16T00:00:40.760Z,12.52
2019-03-16T00:03:09.070Z,12.51
2019-03-16T00:05:36.145Z,12.46
2019-03-16T00:08:03.576Z,12.44
2019-03-16T00:10:30.730Z,12.51
2019-03-16T00:12:58.037Z,12.54
2019-03-16T00:15:25.163Z,12.51
2019-03-16T00:17:52.352Z,12.50
2019-03-16T00:20:19.430Z,12.43
2019-03-16T00:22:46.939Z,12.43
2019-03-16T00:25:14.332Z,12.34
2019-03-16T00:27:41.380Z,12.41
2019-03-16T00:30:08.925Z,12.51
2019-03-16T00:32:36.133Z,12.50
2019-03-16T00:35:03.517Z,12.42
2019-03-16T00:37:30.752Z,12.47
2019-03-16T00:39:58.907Z,12.46
2019-03-16T00:42:26.074Z,12.56
2019-03-16T00:44:53.485Z,12.54
2019-03-16T00:47:21.102Z,12.52
2019-03-16T00:49:48.233Z,12.55
2019-03-16T00:52:15.355Z,12.51
2019-03-16T00:54:42.448Z,12.47
2019-03-16T00:57:11.268Z,12.47
2019-03-16T00:59:38.576Z,12.44
2019-03-16T01:02:06.816Z,12.44
2019-03-16T01:04:33.966Z,12.43
2019-03-16T01:07:01.025Z,12.29
2019-03-16T01:09:28.080Z,12.36
2019-03-16T01:11:55.138Z,12.39
2019-03-16T01:14:22.204Z,12.41
2019-03-16T01:16:49.312Z,12.44
2019-03-16T01:19:16.414Z,12.33
2019-03-16T01:21:43.546Z,12.42
2019-03-16T01:24:10.602Z,12.55
2019-03-16T01:26:37.749Z,12.56
2019-03-16T01:29:05.136Z,12.50
2019-03-16T01:31:32.207Z,12.45
2019-03-16T01:33:59.357Z,12.42
2019-03-16T01:36:26.780Z,12.42
2019-03-16T01:38:55.060Z,12.46
2019-03-16T01:41:22.105Z,12.36
2019-03-16T01:43:49.361Z,12.30
2019-03-16T01:46:16.415Z,12.30
2019-03-16T01:48:43.451Z,12.25
2019-03-16T01:51:10.966Z,12.19
2019-03-16T01:53:38.053Z,12.29
2019-03-16T01:56:05.627Z,12.27
2019-03-16T01:58:32.678Z,12.29
2019-03-16T02:00:59.755Z,12.22
2019-03-16T02:03:26.778Z,12.05
2019-03-16T02:05:55.908Z,11.86
2019-03-16T02:08:22.981Z,11.75
2019-03-16T02:10:50.087Z,11.73
2019-03-16T02:13:17.725Z,11.66
2019-03-16T02:15:44.769Z,11.62
2019-03-16T02:18:12.928Z,11.70
2019-03-16T02:20:40.514Z,11.68
2019-03-16T02:23:07.756Z,11.63
2019-03-16T02:25:34.779Z,11.71
2019-03-16T02:28:01.887Z,11.75
2019-03-16T02:30:29.099Z,11.77
2019-03-16T02:33:11.582Z,11.81
2019-03-16T02:35:25.166Z,11.79
2019-03-16T02:37:52.249Z,11.68
2019-03-16T02:40:19.587Z,11.64
2019-03-16T02:42:46.675Z,11.54
2019-03-16T02:45:13.720Z,11.17
2019-03-16T02:47:41.012Z,10.39
2019-03-16T02:50:08.550Z,10.25
2019-03-16T02:52:35.588Z,10.26
2019-03-16T02:55:03.590Z,10.07
2019-03-16T02:57:30.621Z,9.95
2019-03-16T02:59:57.721Z,9.69
2019-03-16T03:02:24.887Z,9.59
2019-03-16T03:04:51.922Z,9.57
2019-03-16T03:07:18.976Z,9.41
2019-03-16T03:09:45.988Z,9.35
2019-03-16T03:12:13.069Z,9.86
2019-03-16T03:14:41.754Z,9.91
2019-03-16T03:17:08.777Z,9.78
2019-03-16T03:19:35.805Z,9.55
2019-03-16T03:22:02.871Z,9.45
2019-03-16T03:24:31.039Z,9.30
2019-03-16T03:26:58.643Z,9.25
2019-03-16T03:29:25.705Z,9.45
2019-03-16T03:31:52.824Z,9.25
2019-03-16T03:34:21.122Z,9.14
2019-03-16T03:36:48.200Z,9.01
2019-03-16T03:39:15.254Z,9.04
2019-03-16T03:41:42.299Z,9.36
2019-03-16T03:44:09.441Z,9.61
2019-03-16T03:46:37.669Z,9.17
2019-03-16T03:49:05.416Z,8.98
2019-03-16T03:51:32.556Z,8.94
2019-03-16T03:53:59.689Z,8.86
2019-03-16T03:56:26.721Z,8.88
2019-03-16T03:58:53.982Z,8.96
2019-03-16T04:01:22.818Z,8.96
2019-03-16T04:03:49.854Z,9.00
2019-03-16T04:06:16.923Z,8.95
2019-03-16T04:08:44.063Z,9.23
2019-03-16T04:11:11.540Z,9.25
2019-03-16T04:13:38.640Z,9.33
2019-03-16T04:16:05.691Z,9.68
2019-03-16T04:18:33.716Z,9.63
2019-03-16T04:21:00.801Z,9.59
2019-03-16T04:23:27.816Z,9.38
2019-03-16T04:25:54.871Z,9.99
2019-03-16T04:28:21.959Z,10.63
2019-03-16T04:30:49.023Z,11.04
2019-03-16T04:33:16.046Z,11.14
2019-03-16T04:35:43.073Z,11.15
2019-03-16T04:38:10.134Z,11.35
2019-03-16T04:40:38.956Z,11.13
2019-03-16T04:43:06.019Z,11.14
2019-03-16T04:45:34.465Z,11.31
2019-03-16T04:48:01.499Z,11.14
2019-03-16T04:50:28.866Z,11.13
2019-03-16T04:52:56.372Z,11.25
2019-03-16T04:55:23.493Z,10.94
2019-03-16T04:57:50.568Z,11.08
2019-03-16T05:00:18.005Z,10.75
2019-03-16T05:02:47.036Z,10.50
2019-03-16T05:05:17.812Z,10.32
2019-03-16T05:07:45.250Z,10.42
2019-03-16T05:10:12.277Z,10.64
2019-03-16T05:12:39.301Z,10.80
2019-03-16T05:15:06.990Z,10.91
2019-03-16T05:17:34.535Z,10.96
2019-03-16T05:20:01.659Z,11.00
2019-03-16T05:22:28.743Z,11.06
2019-03-16T05:24:55.779Z,11.09
2019-03-16T05:27:22.858Z,11.08
2019-03-16T05:29:51.930Z,11.14
2019-03-16T05:32:18.987Z,11.17
2019-03-16T05:34:56.441Z,11.24
2019-03-16T05:37:16.855Z,11.24
2019-03-16T05:39:43.874Z,11.29
2019-03-16T05:42:10.947Z,11.29
2019-03-16T05:44:38.963Z,11.32
2019-03-16T05:47:06.064Z,11.31
2019-03-16T05:49:33.141Z,11.35
2019-03-16T05:52:00.469Z,11.40
2019-03-16T05:54:27.542Z,11.40
2019-03-16T05:56:54.573Z,11.41
2019-03-16T05:59:21.730Z,11.42
2019-03-16T06:01:48.774Z,11.42
2019-03-16T06:04:15.866Z,11.42
2019-03-16T06:06:43.322Z,11.40
2019-03-16T06:09:12.171Z,11.40
2019-03-16T06:11:39.248Z,11.44
2019-03-16T06:14:06.627Z,11.44
2019-03-16T06:16:33.660Z,11.45
2019-03-16T06:19:00.761Z,11.44
2019-03-16T06:21:27.791Z,11.43
2019-03-16T06:23:55.198Z,11.48
2019-03-16T06:26:22.563Z,11.48
2019-03-16T06:28:49.626Z,11.59
2019-03-16T06:31:16.943Z,11.66
2019-03-16T06:33:44.012Z,11.69
2019-03-16T06:36:11.277Z,11.73
2019-03-16T06:38:38.722Z,11.81
2019-03-16T06:41:05.997Z,11.80
2019-03-16T06:43:33.020Z,11.79
2019-03-16T06:46:00.463Z,11.74
2019-03-16T06:48:27.502Z,11.78
2019-03-16T06:50:54.840Z,11.74
2019-03-16T06:53:22.366Z,11.73
2019-03-16T06:55:52.781Z,11.72
2019-03-16T06:58:19.885Z,11.75
2019-03-16T07:00:46.964Z,11.82
2019-03-16T07:03:14.305Z,11.91
2019-03-16T07:05:43.355Z,11.83
2019-03-16T07:08:10.498Z,11.85
2019-03-16T07:10:38.037Z,11.78
2019-03-16T07:13:06.202Z,11.80
2019-03-16T07:15:40.693Z,11.91
2019-03-16T07:18:08.835Z,11.90
2019-03-16T07:20:35.910Z,11.84
2019-03-16T07:23:03.036Z,11.84
2019-03-16T07:25:31.253Z,11.86
2019-03-16T07:27:58.419Z,11.97
2019-03-16T07:30:25.519Z,12.00
2019-03-16T07:32:52.901Z,11.90
2019-03-16T07:35:19.939Z,11.89
2019-03-16T07:37:47.199Z,11.85
2019-03-16T07:40:14.770Z,11.77
2019-03-16T07:42:41.824Z,11.73
2019-03-16T07:45:09.166Z,11.57
2019-03-16T07:47:36.801Z,11.60
2019-03-16T07:50:04.570Z,11.68
2019-03-16T07:52:31.660Z,11.78
2019-03-16T07:55:01.783Z,11.81
2019-03-16T07:57:39.972Z,11.84
2019-03-16T08:00:01.950Z,11.82
2019-03-16T08:02:29.190Z,11.82
2019-03-16T08:04:56.373Z,11.89
2019-03-16T08:07:23.455Z,12.01
2019-03-16T08:09:50.555Z,12.15
2019-03-16T08:12:19.487Z,12.24
2019-03-16T08:14:46.542Z,12.27
2019-03-16T08:17:13.632Z,12.45
2019-03-16T08:19:41.204Z,12.68
2019-03-16T08:22:08.291Z,12.58
2019-03-16T08:24:35.345Z,12.48
2019-03-16T08:27:02.987Z,12.39
2019-03-16T08:29:30.144Z,12.35
2019-03-16T08:31:57.220Z,12.34
2019-03-16T08:34:24.600Z,12.45
2019-03-16T08:36:52.162Z,12.49
2019-03-16T08:39:19.190Z,12.52
2019-03-16T08:41:46.712Z,12.35
2019-03-16T08:44:13.774Z,12.33
2019-03-16T08:46:40.832Z,12.46
2019-03-16T08:49:07.900Z,12.45
2019-03-16T08:51:35.062Z,12.49
2019-03-16T08:54:02.297Z,12.64
2019-03-16T08:56:29.333Z,12.79
2019-03-16T08:58:56.374Z,12.67
2019-03-16T09:01:23.437Z,12.65
2019-03-16T09:03:50.886Z,12.49
2019-03-16T09:06:18.215Z,12.69
2019-03-16T09:08:45.265Z,12.90
2019-03-16T09:11:12.711Z,12.76
2019-03-16T09:13:39.800Z,12.63
2019-03-16T09:16:07.027Z,12.53
2019-03-16T09:18:34.088Z,12.57
2019-03-16T09:21:01.276Z,12.70
2019-03-16T09:23:28.328Z,12.71
2019-03-16T09:25:57.632Z,12.75
2019-03-16T09:28:25.990Z,12.68
2019-03-16T09:30:53.212Z,12.69
2019-03-16T09:33:20.725Z,12.63
2019-03-16T09:35:47.851Z,12.62
2019-03-16T09:38:15.220Z,12.62
2019-03-16T09:40:42.489Z,12.63
2019-03-16T09:43:09.548Z,12.68
2019-03-16T09:45:36.609Z,12.78
2019-03-16T09:48:03.783Z,12.85
2019-03-16T09:50:30.849Z,12.90
2019-03-16T09:52:57.936Z,12.93
2019-03-16T09:55:25.195Z,13.30
2019-03-16T09:57:52.232Z,13.49
2019-03-16T10:00:19.305Z,13.66
2019-03-16T10:02:46.783Z,13.70
2019-03-16T10:05:14.018Z,13.61
2019-03-16T10:07:41.099Z,13.32
2019-03-16T10:10:11.498Z,13.16
2019-03-16T10:12:38.535Z,12.94
2019-03-16T10:15:05.919Z,13.00
2019-03-16T10:17:33.091Z,13.09
2019-03-16T10:20:01.515Z,13.20
2019-03-16T10:22:30.066Z,13.08
2019-03-16T10:24:57.404Z,12.72
2019-03-16T10:27:24.981Z,12.69
2019-03-16T10:29:52.059Z,12.74
2019-03-16T10:32:19.469Z,12.86
2019-03-16T10:34:46.917Z,12.96
2019-03-16T10:37:15.166Z,12.94
2019-03-16T10:39:42.257Z,12.92
2019-03-16T10:42:09.714Z,13.07
2019-03-16T10:44:36.776Z,13.28
2019-03-16T10:47:04.023Z,13.16
2019-03-16T10:49:31.061Z,13.04
2019-03-16T10:51:58.088Z,13.44
2019-03-16T10:54:25.209Z,13.34
2019-03-16T10:56:52.585Z,13.12
2019-03-16T10:59:19.656Z,12.96
2019-03-16T11:01:48.976Z,12.87
2019-03-16T11:04:17.258Z,12.87
2019-03-16T11:06:45.029Z,12.85
2019-03-16T11:09:14.184Z,13.05
2019-03-16T11:11:41.290Z,13.30
2019-03-16T11:14:08.370Z,13.63
2019-03-16T11:16:58.310Z,13.69
2019-03-16T11:19:28.459Z,13.78
2019-03-16T11:21:57.138Z,14.00
2019-03-16T11:24:26.562Z,14.18
2019-03-16T11:27:17.472Z,13.91
2019-03-16T11:29:45.802Z,13.96
2019-03-16T11:32:13.928Z,14.25
2019-03-16T11:34:48.331Z,14.35
2019-03-16T11:37:40.071Z,14.62
2019-03-16T11:40:10.284Z,14.51
2019-03-16T11:42:43.390Z,14.40
2019-03-16T11:45:21.488Z,14.20
2019-03-16T11:47:50.665Z,14.73
2019-03-16T11:50:22.444Z,15.14
2019-03-16T11:52:53.526Z,14.79
2019-03-16T11:55:22.395Z,15.17
2019-03-16T11:57:52.706Z,16.67
2019-03-16T12:00:20.672Z,15.45
2019-03-16T12:02:52.784Z,15.44
2019-03-16T12:05:30.166Z,15.82
2019-03-16T12:07:58.356Z,15.16
2019-03-16T12:10:26.531Z,15.33
2019-03-16T12:12:56.001Z,16.05
2019-03-16T12:15:28.234Z,16.41
2019-03-16T12:17:55.661Z,15.50
2019-03-16T12:20:24.145Z,15.12
2019-03-16T12:22:55.769Z,14.61
2019-03-16T12:25:27.130Z,14.88
2019-03-16T12:27:56.758Z,15.13
2019-03-16T12:30:37.259Z,14.62
2019-03-16T12:33:05.515Z,14.57
2019-03-16T12:35:32.991Z,13.98
2019-03-16T12:38:08.064Z,14.03
2019-03-16T12:40:40.910Z,13.81
2019-03-16T12:43:08.311Z,13.83
2019-03-16T12:45:38.337Z,13.60
2019-03-16T12:48:05.418Z,13.81
2019-03-16T12:50:34.581Z,13.44
2019-03-16T12:53:02.682Z,13.39
2019-03-16T12:55:30.246Z,13.38
2019-03-16T12:57:58.122Z,13.20
2019-03-16T13:00:25.661Z,12.92
2019-03-16T13:02:52.730Z,12.79
2019-03-16T13:05:19.837Z,13.20
2019-03-16T13:07:47.326Z,13.06
2019-03-16T13:10:14.652Z,13.06
2019-03-16T13:12:41.944Z,12.99
2019-03-16T13:15:09.902Z,12.83
2019-03-16T13:17:37.219Z,12.96
2019-03-16T13:20:04.798Z,13.17
2019-03-16T13:22:33.862Z,12.95
2019-03-16T13:25:00.941Z,13.14
2019-03-16T13:27:28.243Z,13.08
2019-03-16T13:29:59.184Z,13.32
2019-03-16T13:32:24.612Z,13.42
2019-03-16T13:34:53.602Z,13.04
2019-03-16T13:37:21.419Z,13.00
2019-03-16T13:39:49.093Z,12.84
2019-03-16T13:42:16.181Z,12.67
2019-03-16T13:44:43.339Z,12.44
2019-03-16T13:47:10.394Z,12.47
2019-03-16T13:49:37.481Z,12.45
2019-03-16T13:52:06.071Z,12.41
2019-03-16T13:54:33.446Z,12.48
2019-03-16T13:57:01.462Z,12.60
2019-03-16T13:59:28.898Z,12.60
2019-03-16T14:01:55.959Z,12.55
2019-03-16T14:04:23.121Z,12.53
2019-03-16T14:06:50.635Z,12.30
2019-03-16T14:09:18.313Z,12.41
2019-03-16T14:11:45.380Z,12.36
2019-03-16T14:14:14.964Z,12.23
2019-03-16T14:16:42.301Z,12.21
2019-03-16T14:19:09.362Z,12.34
2019-03-16T14:21:36.911Z,12.13
2019-03-16T14:24:04.258Z,12.23
2019-03-16T14:26:32.927Z,12.22
2019-03-16T14:29:00.177Z,11.89
2019-03-16T14:31:27.657Z,11.79
2019-03-16T14:33:54.693Z,11.92
2019-03-16T14:36:22.206Z,11.98
2019-03-16T14:38:49.455Z,12.03
2019-03-16T14:41:16.528Z,12.10
2019-03-16T14:43:43.588Z,12.06
2019-03-16T14:46:10.654Z,12.18
2019-03-16T14:48:37.713Z,12.31
2019-03-16T14:51:04.796Z,12.24
2019-03-16T14:53:32.251Z,12.44
2019-03-16T14:55:59.409Z,12.32
2019-03-16T14:58:26.569Z,12.54
2019-03-16T15:00:53.654Z,13.10
2019-03-16T15:03:20.921Z,13.08
2019-03-16T15:05:48.007Z,12.91
2019-03-16T15:08:15.419Z,13.07
2019-03-16T15:10:44.869Z,12.81
2019-03-16T15:13:11.966Z,12.49
2019-03-16T15:15:39.186Z,12.52
2019-03-16T15:18:06.452Z,12.55
2019-03-16T15:20:35.073Z,12.49
2019-03-16T15:23:04.464Z,12.23
2019-03-16T15:25:31.583Z,12.19
2019-03-16T15:27:58.764Z,12.14
2019-03-16T15:30:25.869Z,12.02
2019-03-16T15:32:53.050Z,12.00
2019-03-16T15:35:20.302Z,11.98
2019-03-16T15:37:47.377Z,11.95
2019-03-16T15:40:14.648Z,11.90
2019-03-16T15:42:42.269Z,11.87
2019-03-16T15:45:12.112Z,11.81
2019-03-16T15:47:39.220Z,11.81
2019-03-16T15:50:06.619Z,11.81
2019-03-16T15:52:33.920Z,11.84
2019-03-16T15:55:01.354Z,11.88
2019-03-16T15:57:28.692Z,11.75
2019-03-16T15:59:55.759Z,11.80
2019-03-16T16:02:24.643Z,11.97
2019-03-16T16:04:51.765Z,11.91
2019-03-16T16:07:19.143Z,11.79
2019-03-16T16:09:48.787Z,11.81
2019-03-16T16:12:15.944Z,11.92
2019-03-16T16:14:42.987Z,11.94
2019-03-16T16:17:11.175Z,11.93
2019-03-16T16:19:38.258Z,11.89
2019-03-16T16:22:05.381Z,12.04
2019-03-16T16:24:34.608Z,12.13
2019-03-16T16:27:01.740Z,12.09
2019-03-16T16:29:28.936Z,12.15
2019-03-16T16:31:57.658Z,12.14
2019-03-16T16:34:27.275Z,12.15
2019-03-16T16:36:54.276Z,12.20
2019-03-16T16:39:21.589Z,12.22
2019-03-16T16:41:48.697Z,12.32
2019-03-16T16:44:15.747Z,12.41
2019-03-16T16:46:43.828Z,12.30
2019-03-16T16:49:10.986Z,12.37
2019-03-16T16:51:38.177Z,12.49
2019-03-16T16:54:05.261Z,12.52
2019-03-16T16:56:32.467Z,12.55
2019-03-16T16:58:59.750Z,12.56
2019-03-16T17:01:29.576Z,12.52
2019-03-16T17:03:57.518Z,12.52
2019-03-16T17:06:24.961Z,12.50
2019-03-16T17:08:52.025Z,12.44
2019-03-16T17:11:20.286Z,12.46
2019-03-16T17:13:48.007Z,12.43
2019-03-16T17:16:15.222Z,12.41
2019-03-16T17:18:42.519Z,12.48
2019-03-16T17:21:10.014Z,12.46
2019-03-16T17:23:37.078Z,12.44
2019-03-16T17:26:04.190Z,12.62
2019-03-16T17:28:32.991Z,12.53
2019-03-16T17:31:02.342Z,12.56
2019-03-16T17:33:29.435Z,12.47
2019-03-16T17:35:58.544Z,12.43
2019-03-16T17:38:25.660Z,12.39
2019-03-16T17:40:53.238Z,12.31
2019-03-16T17:43:20.371Z,12.31
2019-03-16T17:45:47.603Z,12.36
2019-03-16T17:48:16.190Z,12.34
2019-03-16T17:50:43.246Z,12.22
2019-03-16T17:53:10.695Z,12.17
2019-03-16T17:55:38.008Z,12.30
2019-03-16T17:58:05.467Z,12.34
2019-03-16T18:00:32.497Z,12.32
2019-03-16T18:02:59.613Z,12.36
2019-03-16T18:05:26.714Z,12.37
2019-03-16T18:07:54.017Z,12.50
2019-03-16T18:10:21.611Z,12.50
2019-03-16T18:12:48.660Z,12.51
2019-03-16T18:15:16.035Z,12.43
2019-03-16T18:17:43.121Z,12.50
2019-03-16T18:20:11.078Z,12.53
2019-03-16T18:22:38.161Z,12.51
2019-03-16T18:25:06.436Z,12.53
2019-03-16T18:27:33.607Z,12.46
2019-03-16T18:30:01.203Z,12.43
2019-03-16T18:32:28.317Z,12.40
2019-03-16T18:34:55.365Z,12.35
2019-03-16T18:37:22.466Z,12.31
2019-03-16T18:39:49.779Z,12.24
2019-03-16T18:42:16.879Z,12.14
2019-03-16T18:44:43.917Z,11.99
2019-03-16T18:47:11.849Z,11.88
2019-03-16T18:49:38.941Z,11.69
2019-03-16T18:52:06.046Z,11.55
2019-03-16T18:54:33.430Z,11.42
2019-03-16T18:57:00.847Z,11.27
2019-03-16T18:59:27.905Z,11.11
2019-03-16T19:01:54.966Z,11.05
2019-03-16T19:04:22.150Z,10.96
2019-03-16T19:06:49.244Z,10.89
2019-03-16T19:09:16.415Z,10.90
2019-03-16T19:11:43.963Z,10.95
2019-03-16T19:14:11.956Z,10.93
2019-03-16T19:16:39.037Z,10.96
2019-03-16T19:19:06.521Z,10.95
2019-03-16T19:21:33.623Z,10.92
2019-03-16T19:24:00.742Z,10.83
2019-03-16T19:26:30.118Z,10.86
2019-03-16T19:28:58.962Z,10.92
2019-03-16T19:31:26.063Z,11.07
2019-03-16T19:33:53.560Z,11.07
2019-03-16T19:36:20.834Z,11.19
2019-03-16T19:38:47.996Z,11.46
2019-03-16T19:41:16.929Z,11.47
2019-03-16T19:43:44.483Z,11.48
2019-03-16T19:46:11.574Z,11.51
2019-03-16T19:48:38.836Z,11.59
2019-03-16T19:51:06.401Z,11.59
2019-03-16T19:53:33.472Z,11.47
2019-03-16T19:56:00.771Z,11.34
2019-03-16T19:58:27.894Z,11.24
2019-03-16T20:00:55.028Z,11.15
2019-03-16T20:03:22.148Z,11.15
2019-03-16T20:05:49.987Z,11.14
2019-03-16T20:08:17.185Z,11.23
2019-03-16T20:10:46.859Z,11.29
2019-03-16T20:13:15.107Z,11.25
2019-03-16T20:15:44.028Z,11.28
2019-03-16T20:18:11.262Z,11.30
2019-03-16T20:20:38.699Z,11.42
2019-03-16T20:23:07.755Z,11.31
2019-03-16T20:25:34.917Z,11.17
2019-03-16T20:28:02.346Z,10.96
2019-03-16T20:30:30.724Z,10.83
2019-03-16T20:33:03.821Z,10.75
2019-03-16T20:35:29.874Z,10.66
2019-03-16T20:37:57.080Z,10.37
2019-03-16T20:40:25.106Z,10.06
2019-03-16T20:42:52.499Z,10.00
2019-03-16T20:45:19.902Z,9.99
2019-03-16T20:47:49.010Z,9.98
2019-03-16T20:50:16.504Z,9.85
2019-03-16T20:52:46.073Z,9.81
2019-03-16T20:55:13.394Z,9.81
2019-03-16T20:57:40.835Z,9.75
2019-03-16T21:00:08.800Z,9.71
2019-03-16T21:02:36.221Z,9.61
2019-03-16T21:05:05.556Z,9.62
2019-03-16T21:07:34.219Z,9.57
2019-03-16T21:10:01.766Z,9.56
2019-03-16T21:12:31.361Z,9.46
2019-03-16T21:14:58.706Z,9.39
2019-03-16T21:17:26.895Z,9.35
2019-03-16T21:19:54.758Z,9.24
2019-03-16T21:22:34.634Z,9.30
2019-03-16T21:24:52.645Z,9.26
2019-03-16T21:27:20.192Z,9.36
2019-03-16T21:29:50.512Z,9.43
2019-03-16T21:32:21.393Z,9.39
2019-03-16T21:34:52.937Z,9.40
2019-03-16T21:37:22.405Z,9.35
2019-03-16T21:39:52.701Z,9.32
2019-03-16T21:42:25.911Z,9.27
2019-03-16T21:44:58.299Z,9.24
2019-03-16T21:47:26.940Z,9.24
2019-03-16T21:49:59.046Z,9.31
2019-03-16T21:52:27.005Z,9.33
2019-03-16T21:55:00.505Z,9.25
2019-03-16T21:57:33.091Z,9.28
2019-03-16T22:00:06.534Z,9.17
2019-03-16T22:02:44.407Z,9.17
2019-03-16T22:05:14.246Z,9.10
2019-03-16T22:07:49.390Z,9.10
2019-03-16T22:10:19.993Z,9.10
2019-03-16T22:12:50.574Z,9.06
2019-03-16T22:15:20.364Z,9.04
2019-03-16T22:17:48.109Z,9.07
2019-03-16T22:20:19.882Z,9.19
2019-03-16T22:22:48.278Z,9.20
2019-03-16T22:25:15.639Z,9.27
2019-03-16T22:27:47.177Z,9.26
2019-03-16T22:30:16.871Z,9.13
2019-03-16T22:32:45.597Z,9.12
2019-03-16T22:35:14.104Z,9.07
2019-03-16T22:37:41.623Z,9.06
2019-03-16T22:40:09.417Z,9.05
2019-03-16T22:42:39.206Z,9.08
2019-03-16T22:45:11.246Z,9.14
2019-03-16T22:47:38.890Z,9.16
2019-03-16T22:50:06.732Z,9.10
2019-03-16T22:52:34.127Z,9.09
2019-03-16T22:55:02.669Z,9.09
2019-03-16T22:57:29.802Z,9.02
2019-03-16T22:59:56.995Z,8.98
2019-03-16T23:02:24.080Z,8.98
2019-03-16T23:04:51.302Z,9.01
2019-03-16T23:07:18.806Z,9.00
2019-03-16T23:09:45.847Z,8.98
2019-03-16T23:12:13.023Z,8.93
2019-03-16T23:14:40.118Z,8.96
2019-03-16T23:17:07.445Z,8.94
2019-03-16T23:19:34.886Z,8.97
2019-03-16T23:22:03.039Z,8.97
2019-03-16T23:24:30.050Z,9.00
2019-03-16T23:26:57.309Z,9.07
2019-03-16T23:29:24.559Z,9.06
2019-03-16T23:31:51.633Z,9.11
2019-03-16T23:34:19.657Z,9.11
2019-03-16T23:36:47.332Z,9.13
2019-03-16T23:39:14.438Z,9.11
2019-03-16T23:41:43.427Z,9.08
2019-03-16T23:44:10.902Z,9.09
2019-03-16T23:46:38.097Z,9.11
2019-03-16T23:49:05.181Z,9.26
2019-03-16T23:51:32.378Z,9.33
2019-03-16T23:53:59.439Z,9.36
2019-03-16T23:56:26.512Z,9.28
2019-03-16T23:58:54.020Z,9.29
